sensor_id;sensor_type;location;lat;lon;timestamp;P1;durP1;ratioP1;P2;durP2;ratioP2
66702;SDS011;60933;46.398;-63.798;2023-04-06T00:01:57;0.60;;;0.20;;
66702;SDS011;60933;46.398;-63.798;2023-04-06T00:06:49;0.88;;;0.43;;
66702;SDS011;60933;46.398;-63.798;2023-04-06T00:11:41;2.95;;;0.65;;
66702;SDS011;60933;46.398;-63.798;2023-04-06T00:16:32;4.03;;;0.77;;
66702;SDS011;60933;46.398;-63.798;2023-04-06T00:18:58;2.30;;;0.35;;
66702;SDS011;60933;46.398;-63.798;2023-04-06T00:21:25;2.60;;;0.60;;
66702;SDS011;60933;46.398;-63.798;2023-04-06T00:26:16;0.90;;;0.30;;
66702;SDS011;60933;46.398;-63.798;2023-04-06T00:31:08;0.75;;;0.40;;
66702;SDS011;60933;46.398;-63.798;2023-04-06T00:33:34;1.98;;;0.43;;
66702;SDS011;60933;46.398;-63.798;2023-04-06T00:38:26;3.63;;;0.43;;
66702;SDS011;60933;46.398;-63.798;2023-04-06T00:43:18;3.15;;;0.50;;
66702;SDS011;60933;46.398;-63.798;2023-04-06T00:45:44;1.60;;;0.35;;
66702;SDS011;60933;46.398;-63.798;2023-04-06T00:48:10;6.55;;;0.60;;
66702;SDS011;60933;46.398;-63.798;2023-04-06T00:50:36;2.67;;;0.70;;
66702;SDS011;60933;46.398;-63.798;2023-04-06T00:55:30;1.88;;;0.35;;
66702;SDS011;60933;46.398;-63.798;2023-04-06T00:57:57;0.80;;;0.32;;
66702;SDS011;60933;46.398;-63.798;2023-04-06T01:00:25;2.92;;;0.52;;
66702;SDS011;60933;46.398;-63.798;2023-04-06T01:05:18;3.22;;;0.70;;
66702;SDS011;60933;46.398;-63.798;2023-04-06T01:07:45;2.45;;;0.60;;
66702;SDS011;60933;46.398;-63.798;2023-04-06T01:10:24;1.70;;;0.63;;
66702;SDS011;60933;46.398;-63.798;2023-04-06T01:12:51;1.90;;;0.50;;
66702;SDS011;60933;46.398;-63.798;2023-04-06T01:17:43;6.05;;;0.90;;
66702;SDS011;60933;46.398;-63.798;2023-04-06T01:20:09;2.78;;;0.60;;
66702;SDS011;60933;46.398;-63.798;2023-04-06T01:22:35;4.18;;;0.90;;
66702;SDS011;60933;46.398;-63.798;2023-04-06T01:25:01;4.32;;;1.13;;
66702;SDS011;60933;46.398;-63.798;2023-04-06T01:29:55;4.53;;;0.90;;
66702;SDS011;60933;46.398;-63.798;2023-04-06T01:32:21;1.77;;;0.60;;
66702;SDS011;60933;46.398;-63.798;2023-04-06T01:34:47;5.05;;;0.80;;
66702;SDS011;60933;46.398;-63.798;2023-04-06T01:39:39;2.88;;;0.93;;
66702;SDS011;60933;46.398;-63.798;2023-04-06T01:42:06;2.75;;;0.40;;
66702;SDS011;60933;46.398;-63.798;2023-04-06T01:46:58;2.88;;;0.50;;
66702;SDS011;60933;46.398;-63.798;2023-04-06T01:51:49;5.00;;;0.50;;
66702;SDS011;60933;46.398;-63.798;2023-04-06T01:54:16;4.80;;;0.98;;
66702;SDS011;60933;46.398;-63.798;2023-04-06T01:59:08;4.07;;;0.70;;
66702;SDS011;60933;46.398;-63.798;2023-04-06T02:04:00;2.92;;;0.40;;
66702;SDS011;60933;46.398;-63.798;2023-04-06T02:08:51;3.33;;;0.55;;
66702;SDS011;60933;46.398;-63.798;2023-04-06T02:11:18;3.38;;;0.75;;
66702;SDS011;60933;46.398;-63.798;2023-04-06T02:16:10;2.78;;;0.40;;
66702;SDS011;60933;46.398;-63.798;2023-04-06T02:18:36;2.85;;;0.20;;
66702;SDS011;60933;46.398;-63.798;2023-04-06T02:23:28;3.17;;;0.70;;
66702;SDS011;60933;46.398;-63.798;2023-04-06T02:28:19;1.85;;;0.32;;
66702;SDS011;60933;46.398;-63.798;2023-04-06T02:30:45;1.80;;;0.60;;
66702;SDS011;60933;46.398;-63.798;2023-04-06T02:35:37;4.68;;;0.50;;
66702;SDS011;60933;46.398;-63.798;2023-04-06T02:40:29;3.63;;;0.43;;
66702;SDS011;60933;46.398;-63.798;2023-04-06T02:42:55;1.48;;;0.60;;
66702;SDS011;60933;46.398;-63.798;2023-04-06T02:45:21;2.75;;;0.70;;
66702;SDS011;60933;46.398;-63.798;2023-04-06T02:50:13;2.10;;;0.32;;
66702;SDS011;60933;46.398;-63.798;2023-04-06T02:52:40;2.72;;;0.60;;
66702;SDS011;60933;46.398;-63.798;2023-04-06T02:55:06;2.70;;;0.32;;
66702;SDS011;60933;46.398;-63.798;2023-04-06T02:57:33;2.75;;;0.63;;
66702;SDS011;60933;46.398;-63.798;2023-04-06T02:59:59;1.30;;;0.50;;
66702;SDS011;60933;46.398;-63.798;2023-04-06T03:04:52;3.65;;;0.52;;
66702;SDS011;60933;46.398;-63.798;2023-04-06T03:09:44;2.30;;;0.35;;
66702;SDS011;60933;46.398;-63.798;2023-04-06T03:12:10;7.18;;;0.85;;
66702;SDS011;60933;46.398;-63.798;2023-04-06T03:14:36;2.70;;;0.50;;
66702;SDS011;60933;46.398;-63.798;2023-04-06T03:19:28;2.72;;;0.73;;
66702;SDS011;60933;46.398;-63.798;2023-04-06T03:21:54;4.55;;;1.25;;
66702;SDS011;60933;46.398;-63.798;2023-04-06T03:24:20;2.60;;;0.85;;
66702;SDS011;60933;46.398;-63.798;2023-04-06T03:29:12;0.95;;;0.40;;
66702;SDS011;60933;46.398;-63.798;2023-04-06T03:34:04;2.35;;;0.68;;
66702;SDS011;60933;46.398;-63.798;2023-04-06T03:36:30;4.32;;;0.73;;
66702;SDS011;60933;46.398;-63.798;2023-04-06T03:41:22;2.97;;;0.52;;
66702;SDS011;60933;46.398;-63.798;2023-04-06T03:43:48;5.03;;;0.93;;
66702;SDS011;60933;46.398;-63.798;2023-04-06T03:46:15;3.22;;;0.40;;
66702;SDS011;60933;46.398;-63.798;2023-04-06T03:51:06;4.00;;;0.50;;
66702;SDS011;60933;46.398;-63.798;2023-04-06T03:53:32;4.15;;;1.20;;
66702;SDS011;60933;46.398;-63.798;2023-04-06T03:58:24;1.30;;;0.40;;
66702;SDS011;60933;46.398;-63.798;2023-04-06T04:00:50;2.67;;;0.73;;
66702;SDS011;60933;46.398;-63.798;2023-04-06T04:03:17;2.58;;;0.57;;
66702;SDS011;60933;46.398;-63.798;2023-04-06T04:08:08;1.58;;;0.50;;
66702;SDS011;60933;46.398;-63.798;2023-04-06T04:10:34;4.07;;;0.55;;
66702;SDS011;60933;46.398;-63.798;2023-04-06T04:13:00;3.17;;;0.88;;
66702;SDS011;60933;46.398;-63.798;2023-04-06T04:15:26;3.83;;;0.40;;
66702;SDS011;60933;46.398;-63.798;2023-04-06T04:17:52;2.42;;;0.40;;
66702;SDS011;60933;46.398;-63.798;2023-04-06T04:22:44;2.05;;;0.60;;
66702;SDS011;60933;46.398;-63.798;2023-04-06T04:25:10;1.90;;;0.38;;
66702;SDS011;60933;46.398;-63.798;2023-04-06T04:30:02;2.67;;;0.70;;
66702;SDS011;60933;46.398;-63.798;2023-04-06T04:32:28;3.33;;;0.75;;
66702;SDS011;60933;46.398;-63.798;2023-04-06T04:34:55;2.10;;;0.43;;
66702;SDS011;60933;46.398;-63.798;2023-04-06T04:37:21;2.35;;;0.50;;
66702;SDS011;60933;46.398;-63.798;2023-04-06T04:42:12;1.85;;;0.90;;
66702;SDS011;60933;46.398;-63.798;2023-04-06T04:44:39;2.65;;;0.60;;
66702;SDS011;60933;46.398;-63.798;2023-04-06T04:47:05;3.67;;;0.60;;
66702;SDS011;60933;46.398;-63.798;2023-04-06T04:51:57;2.00;;;0.50;;
66702;SDS011;60933;46.398;-63.798;2023-04-06T04:54:23;1.10;;;0.35;;
66702;SDS011;60933;46.398;-63.798;2023-04-06T04:56:49;1.08;;;0.30;;
66702;SDS011;60933;46.398;-63.798;2023-04-06T04:59:15;2.72;;;0.40;;
66702;SDS011;60933;46.398;-63.798;2023-04-06T05:01:41;3.33;;;0.93;;
66702;SDS011;60933;46.398;-63.798;2023-04-06T05:06:33;1.13;;;0.73;;
66702;SDS011;60933;46.398;-63.798;2023-04-06T05:08:59;3.17;;;0.52;;
66702;SDS011;60933;46.398;-63.798;2023-04-06T05:11:25;2.45;;;0.60;;
66702;SDS011;60933;46.398;-63.798;2023-04-06T05:16:17;1.77;;;0.50;;
66702;SDS011;60933;46.398;-63.798;2023-04-06T05:21:10;2.35;;;0.65;;
66702;SDS011;60933;46.398;-63.798;2023-04-06T05:23:36;1.38;;;0.35;;
66702;SDS011;60933;46.398;-63.798;2023-04-06T05:28:28;1.25;;;0.60;;
66702;SDS011;60933;46.398;-63.798;2023-04-06T05:30:54;1.08;;;0.40;;
66702;SDS011;60933;46.398;-63.798;2023-04-06T05:33:22;2.50;;;0.55;;
66702;SDS011;60933;46.398;-63.798;2023-04-06T05:35:49;1.52;;;1.42;;
66702;SDS011;60933;46.398;-63.798;2023-04-06T05:38:15;1.75;;;0.40;;
66702;SDS011;60933;46.398;-63.798;2023-04-06T05:40:41;1.08;;;0.60;;
66702;SDS011;60933;46.398;-63.798;2023-04-06T05:43:07;0.70;;;0.20;;
66702;SDS011;60933;46.398;-63.798;2023-04-06T05:48:02;2.03;;;0.60;;
66702;SDS011;60933;46.398;-63.798;2023-04-06T05:50:28;2.63;;;0.47;;
66702;SDS011;60933;46.398;-63.798;2023-04-06T05:55:20;0.90;;;0.38;;
66702;SDS011;60933;46.398;-63.798;2023-04-06T05:57:46;4.97;;;0.57;;
66702;SDS011;60933;46.398;-63.798;2023-04-06T06:02:39;2.50;;;0.50;;
66702;SDS011;60933;46.398;-63.798;2023-04-06T06:05:08;3.50;;;0.50;;
66702;SDS011;60933;46.398;-63.798;2023-04-06T06:07:35;1.73;;;0.47;;
66702;SDS011;60933;46.398;-63.798;2023-04-06T06:10:02;1.55;;;0.52;;
66702;SDS011;60933;46.398;-63.798;2023-04-06T06:12:31;0.75;;;0.45;;
66702;SDS011;60933;46.398;-63.798;2023-04-06T06:17:23;4.13;;;0.50;;
66702;SDS011;60933;46.398;-63.798;2023-04-06T06:22:14;3.13;;;0.40;;
66702;SDS011;60933;46.398;-63.798;2023-04-06T06:27:06;1.13;;;0.43;;
66702;SDS011;60933;46.398;-63.798;2023-04-06T06:29:33;2.13;;;0.55;;
66702;SDS011;60933;46.398;-63.798;2023-04-06T06:34:24;0.68;;;0.35;;
66702;SDS011;60933;46.398;-63.798;2023-04-06T06:39:17;1.05;;;0.45;;
66702;SDS011;60933;46.398;-63.798;2023-04-06T06:44:08;5.13;;;0.57;;
66702;SDS011;60933;46.398;-63.798;2023-04-06T06:49:00;0.98;;;0.35;;
66702;SDS011;60933;46.398;-63.798;2023-04-06T06:53:52;0.82;;;0.60;;
66702;SDS011;60933;46.398;-63.798;2023-04-06T06:56:18;1.13;;;0.40;;
66702;SDS011;60933;46.398;-63.798;2023-04-06T06:58:44;1.02;;;0.45;;
66702;SDS011;60933;46.398;-63.798;2023-04-06T07:01:10;2.53;;;0.60;;
66702;SDS011;60933;46.398;-63.798;2023-04-06T07:03:36;1.30;;;0.50;;
66702;SDS011;60933;46.398;-63.798;2023-04-06T07:08:28;3.53;;;0.68;;
66702;SDS011;60933;46.398;-63.798;2023-04-06T07:10:54;2.20;;;0.50;;
66702;SDS011;60933;46.398;-63.798;2023-04-06T07:13:24;0.60;;;0.40;;
66702;SDS011;60933;46.398;-63.798;2023-04-06T07:15:52;0.95;;;0.43;;
66702;SDS011;60933;46.398;-63.798;2023-04-06T07:20:45;0.80;;;0.40;;
66702;SDS011;60933;46.398;-63.798;2023-04-06T07:23:11;3.50;;;0.45;;
66702;SDS011;60933;46.398;-63.798;2023-04-06T07:28:03;2.38;;;0.40;;
66702;SDS011;60933;46.398;-63.798;2023-04-06T07:30:29;2.33;;;0.47;;
66702;SDS011;60933;46.398;-63.798;2023-04-06T07:32:56;1.42;;;0.50;;
66702;SDS011;60933;46.398;-63.798;2023-04-06T07:35:23;0.93;;;0.40;;
66702;SDS011;60933;46.398;-63.798;2023-04-06T07:37:50;1.17;;;0.30;;
66702;SDS011;60933;46.398;-63.798;2023-04-06T07:42:44;1.60;;;0.50;;
66702;SDS011;60933;46.398;-63.798;2023-04-06T07:45:11;2.72;;;1.13;;
66702;SDS011;60933;46.398;-63.798;2023-04-06T07:47:37;1.23;;;0.43;;
66702;SDS011;60933;46.398;-63.798;2023-04-06T07:52:29;0.95;;;0.47;;
66702;SDS011;60933;46.398;-63.798;2023-04-06T07:54:57;0.98;;;0.50;;
66702;SDS011;60933;46.398;-63.798;2023-04-06T07:57:24;1.33;;;0.50;;
66702;SDS011;60933;46.398;-63.798;2023-04-06T07:59:50;1.08;;;0.68;;
66702;SDS011;60933;46.398;-63.798;2023-04-06T08:02:16;1.10;;;0.38;;
66702;SDS011;60933;46.398;-63.798;2023-04-06T08:07:08;1.77;;;0.52;;
66702;SDS011;60933;46.398;-63.798;2023-04-06T08:12:00;0.93;;;0.32;;
66702;SDS011;60933;46.398;-63.798;2023-04-06T08:14:26;1.13;;;0.32;;
66702;SDS011;60933;46.398;-63.798;2023-04-06T08:19:18;1.23;;;0.50;;
66702;SDS011;60933;46.398;-63.798;2023-04-06T08:21:45;1.05;;;0.52;;
66702;SDS011;60933;46.398;-63.798;2023-04-06T08:24:12;1.08;;;0.43;;
66702;SDS011;60933;46.398;-63.798;2023-04-06T08:26:39;1.70;;;0.50;;
66702;SDS011;60933;46.398;-63.798;2023-04-06T08:29:06;1.02;;;0.60;;
66702;SDS011;60933;46.398;-63.798;2023-04-06T08:31:35;2.17;;;0.55;;
66702;SDS011;60933;46.398;-63.798;2023-04-06T08:34:03;1.23;;;0.50;;
66702;SDS011;60933;46.398;-63.798;2023-04-06T08:36:30;1.85;;;0.50;;
66702;SDS011;60933;46.398;-63.798;2023-04-06T08:41:34;1.20;;;1.10;;
66702;SDS011;60933;46.398;-63.798;2023-04-06T08:44:01;1.17;;;0.50;;
66702;SDS011;60933;46.398;-63.798;2023-04-06T08:46:34;1.90;;;0.57;;
66702;SDS011;60933;46.398;-63.798;2023-04-06T08:49:12;1.27;;;0.50;;
66702;SDS011;60933;46.398;-63.798;2023-04-06T08:51:56;0.68;;;0.28;;
66702;SDS011;60933;46.398;-63.798;2023-04-06T08:54:31;1.13;;;0.40;;
66702;SDS011;60933;46.398;-63.798;2023-04-06T08:57:20;1.92;;;0.50;;
66702;SDS011;60933;46.398;-63.798;2023-04-06T08:59:46;2.72;;;0.65;;
66702;SDS011;60933;46.398;-63.798;2023-04-06T09:02:15;1.90;;;1.08;;
66702;SDS011;60933;46.398;-63.798;2023-04-06T09:04:47;1.15;;;0.30;;
66702;SDS011;60933;46.398;-63.798;2023-04-06T09:07:15;0.60;;;0.32;;
66702;SDS011;60933;46.398;-63.798;2023-04-06T09:09:41;1.27;;;0.55;;
66702;SDS011;60933;46.398;-63.798;2023-04-06T09:12:25;1.27;;;0.40;;
66702;SDS011;60933;46.398;-63.798;2023-04-06T09:14:52;1.63;;;0.55;;
66702;SDS011;60933;46.398;-63.798;2023-04-06T09:17:22;1.00;;;0.40;;
66702;SDS011;60933;46.398;-63.798;2023-04-06T09:19:50;1.92;;;0.60;;
66702;SDS011;60933;46.398;-63.798;2023-04-06T09:22:17;2.17;;;0.70;;
66702;SDS011;60933;46.398;-63.798;2023-04-06T09:24:45;2.05;;;0.70;;
66702;SDS011;60933;46.398;-63.798;2023-04-06T09:27:13;0.55;;;0.40;;
66702;SDS011;60933;46.398;-63.798;2023-04-06T09:29:40;1.55;;;0.45;;
66702;SDS011;60933;46.398;-63.798;2023-04-06T09:32:08;2.45;;;0.88;;
66702;SDS011;60933;46.398;-63.798;2023-04-06T09:34:41;3.00;;;0.50;;
66702;SDS011;60933;46.398;-63.798;2023-04-06T09:37:14;1.38;;;0.60;;
66702;SDS011;60933;46.398;-63.798;2023-04-06T09:39:41;1.55;;;0.40;;
66702;SDS011;60933;46.398;-63.798;2023-04-06T09:44:33;1.40;;;0.65;;
66702;SDS011;60933;46.398;-63.798;2023-04-06T09:46:59;3.50;;;1.10;;
66702;SDS011;60933;46.398;-63.798;2023-04-06T09:49:28;1.48;;;0.82;;
66702;SDS011;60933;46.398;-63.798;2023-04-06T09:52:00;3.30;;;1.00;;
66702;SDS011;60933;46.398;-63.798;2023-04-06T09:54:29;1.38;;;0.68;;
66702;SDS011;60933;46.398;-63.798;2023-04-06T10:02:49;2.25;;;0.80;;
66702;SDS011;60933;46.398;-63.798;2023-04-06T10:05:42;2.60;;;0.88;;
66702;SDS011;60933;46.398;-63.798;2023-04-06T10:08:14;1.73;;;0.73;;
66702;SDS011;60933;46.398;-63.798;2023-04-06T10:10:41;2.50;;;0.82;;
66702;SDS011;60933;46.398;-63.798;2023-04-06T10:13:10;1.50;;;0.73;;
66702;SDS011;60933;46.398;-63.798;2023-04-06T10:15:38;1.30;;;1.10;;
66702;SDS011;60933;46.398;-63.798;2023-04-06T10:18:07;1.52;;;0.57;;
66702;SDS011;60933;46.398;-63.798;2023-04-06T10:20:36;1.35;;;0.60;;
66702;SDS011;60933;46.398;-63.798;2023-04-06T10:25:51;2.85;;;1.38;;
66702;SDS011;60933;46.398;-63.798;2023-04-06T10:28:21;1.10;;;0.55;;
66702;SDS011;60933;46.398;-63.798;2023-04-06T10:30:48;2.15;;;0.60;;
66702;SDS011;60933;46.398;-63.798;2023-04-06T10:35:41;2.50;;;0.65;;
66702;SDS011;60933;46.398;-63.798;2023-04-06T10:40:37;1.90;;;0.55;;
66702;SDS011;60933;46.398;-63.798;2023-04-06T10:43:07;1.95;;;0.40;;
66702;SDS011;60933;46.398;-63.798;2023-04-06T10:45:38;2.05;;;0.60;;
66702;SDS011;60933;46.398;-63.798;2023-04-06T10:50:47;0.50;;;0.32;;
66702;SDS011;60933;46.398;-63.798;2023-04-06T10:55:51;1.02;;;0.50;;
66702;SDS011;60933;46.398;-63.798;2023-04-06T10:58:18;1.13;;;0.40;;
66702;SDS011;60933;46.398;-63.798;2023-04-06T11:00:44;2.28;;;0.50;;
66702;SDS011;60933;46.398;-63.798;2023-04-06T11:03:11;1.70;;;0.73;;
66702;SDS011;60933;46.398;-63.798;2023-04-06T11:08:03;1.23;;;0.50;;
66702;SDS011;60933;46.398;-63.798;2023-04-06T11:10:30;1.73;;;0.85;;
66702;SDS011;60933;46.398;-63.798;2023-04-06T11:15:22;3.28;;;0.63;;
66702;SDS011;60933;46.398;-63.798;2023-04-06T11:17:48;1.48;;;0.65;;
66702;SDS011;60933;46.398;-63.798;2023-04-06T11:20:15;2.33;;;1.65;;
66702;SDS011;60933;46.398;-63.798;2023-04-06T11:22:51;1.85;;;0.80;;
66702;SDS011;60933;46.398;-63.798;2023-04-06T11:25:18;3.35;;;1.23;;
66702;SDS011;60933;46.398;-63.798;2023-04-06T11:27:45;4.00;;;1.80;;
66702;SDS011;60933;46.398;-63.798;2023-04-06T11:30:12;2.67;;;1.17;;
66702;SDS011;60933;46.398;-63.798;2023-04-06T11:32:40;3.25;;;1.55;;
66702;SDS011;60933;46.398;-63.798;2023-04-06T11:35:11;1.85;;;1.05;;
66702;SDS011;60933;46.398;-63.798;2023-04-06T11:37:50;4.15;;;1.00;;
66702;SDS011;60933;46.398;-63.798;2023-04-06T11:40:23;2.45;;;1.25;;
66702;SDS011;60933;46.398;-63.798;2023-04-06T11:42:53;2.75;;;1.13;;
66702;SDS011;60933;46.398;-63.798;2023-04-06T11:45:21;2.10;;;1.13;;
66702;SDS011;60933;46.398;-63.798;2023-04-06T11:47:57;2.60;;;1.20;;
66702;SDS011;60933;46.398;-63.798;2023-04-06T11:50:31;2.95;;;1.13;;
66702;SDS011;60933;46.398;-63.798;2023-04-06T11:53:01;3.28;;;1.40;;
66702;SDS011;60933;46.398;-63.798;2023-04-06T11:55:28;2.78;;;1.23;;
66702;SDS011;60933;46.398;-63.798;2023-04-06T11:57:54;2.30;;;1.35;;
66702;SDS011;60933;46.398;-63.798;2023-04-06T12:00:20;3.45;;;1.60;;
66702;SDS011;60933;46.398;-63.798;2023-04-06T12:02:47;2.70;;;1.80;;
66702;SDS011;60933;46.398;-63.798;2023-04-06T12:05:14;1.98;;;1.20;;
66702;SDS011;60933;46.398;-63.798;2023-04-06T12:07:40;2.63;;;1.20;;
66702;SDS011;60933;46.398;-63.798;2023-04-06T12:10:06;4.20;;;1.55;;
66702;SDS011;60933;46.398;-63.798;2023-04-06T12:12:33;3.42;;;1.30;;
66702;SDS011;60933;46.398;-63.798;2023-04-06T12:14:59;3.35;;;1.83;;
66702;SDS011;60933;46.398;-63.798;2023-04-06T12:17:25;3.35;;;1.40;;
66702;SDS011;60933;46.398;-63.798;2023-04-06T12:19:51;2.55;;;1.40;;
66702;SDS011;60933;46.398;-63.798;2023-04-06T12:22:18;2.88;;;1.45;;
66702;SDS011;60933;46.398;-63.798;2023-04-06T12:24:44;3.95;;;1.63;;
66702;SDS011;60933;46.398;-63.798;2023-04-06T12:27:10;3.08;;;1.83;;
66702;SDS011;60933;46.398;-63.798;2023-04-06T12:29:37;3.53;;;1.27;;
66702;SDS011;60933;46.398;-63.798;2023-04-06T12:32:03;2.45;;;1.63;;
66702;SDS011;60933;46.398;-63.798;2023-04-06T12:34:31;3.85;;;1.88;;
66702;SDS011;60933;46.398;-63.798;2023-04-06T12:36:57;3.90;;;1.65;;
66702;SDS011;60933;46.398;-63.798;2023-04-06T12:39:23;3.80;;;2.15;;
66702;SDS011;60933;46.398;-63.798;2023-04-06T12:41:50;5.43;;;2.05;;
66702;SDS011;60933;46.398;-63.798;2023-04-06T12:44:17;5.35;;;2.78;;
66702;SDS011;60933;46.398;-63.798;2023-04-06T12:46:43;6.03;;;1.83;;
66702;SDS011;60933;46.398;-63.798;2023-04-06T12:49:10;7.13;;;2.22;;
66702;SDS011;60933;46.398;-63.798;2023-04-06T12:51:36;4.50;;;2.00;;
66702;SDS011;60933;46.398;-63.798;2023-04-06T12:54:02;4.88;;;1.83;;
66702;SDS011;60933;46.398;-63.798;2023-04-06T12:56:28;6.00;;;2.30;;
66702;SDS011;60933;46.398;-63.798;2023-04-06T12:58:55;3.25;;;1.85;;
66702;SDS011;60933;46.398;-63.798;2023-04-06T13:01:21;5.05;;;1.80;;
66702;SDS011;60933;46.398;-63.798;2023-04-06T13:03:47;2.63;;;1.55;;
66702;SDS011;60933;46.398;-63.798;2023-04-06T13:06:13;4.00;;;2.00;;
66702;SDS011;60933;46.398;-63.798;2023-04-06T13:08:40;2.58;;;1.42;;
66702;SDS011;60933;46.398;-63.798;2023-04-06T13:11:06;3.00;;;1.33;;
66702;SDS011;60933;46.398;-63.798;2023-04-06T13:13:36;3.30;;;1.48;;
66702;SDS011;60933;46.398;-63.798;2023-04-06T13:16:06;3.97;;;1.58;;
66702;SDS011;60933;46.398;-63.798;2023-04-06T13:18:33;1.88;;;1.08;;
66702;SDS011;60933;46.398;-63.798;2023-04-06T13:21:01;1.40;;;0.80;;
66702;SDS011;60933;46.398;-63.798;2023-04-06T13:23:28;3.05;;;1.20;;
66702;SDS011;60933;46.398;-63.798;2023-04-06T13:26:01;2.17;;;1.98;;
66702;SDS011;60933;46.398;-63.798;2023-04-06T13:28:36;2.13;;;1.10;;
66702;SDS011;60933;46.398;-63.798;2023-04-06T13:31:06;3.03;;;1.65;;
66702;SDS011;60933;46.398;-63.798;2023-04-06T13:33:32;1.48;;;0.93;;
66702;SDS011;60933;46.398;-63.798;2023-04-06T13:35:59;1.27;;;0.85;;
66702;SDS011;60933;46.398;-63.798;2023-04-06T13:38:25;2.70;;;0.80;;
66702;SDS011;60933;46.398;-63.798;2023-04-06T13:40:51;1.88;;;1.10;;
66702;SDS011;60933;46.398;-63.798;2023-04-06T13:43:18;1.38;;;0.82;;
66702;SDS011;60933;46.398;-63.798;2023-04-06T13:45:51;1.40;;;0.90;;
66702;SDS011;60933;46.398;-63.798;2023-04-06T13:48:20;1.88;;;0.68;;
66702;SDS011;60933;46.398;-63.798;2023-04-06T13:50:46;1.42;;;0.85;;
66702;SDS011;60933;46.398;-63.798;2023-04-06T13:53:13;1.20;;;0.70;;
66702;SDS011;60933;46.398;-63.798;2023-04-06T13:55:39;2.28;;;0.85;;
66702;SDS011;60933;46.398;-63.798;2023-04-06T13:58:06;1.73;;;1.17;;
66702;SDS011;60933;46.398;-63.798;2023-04-06T14:00:32;1.52;;;0.95;;
66702;SDS011;60933;46.398;-63.798;2023-04-06T14:02:58;1.85;;;1.20;;
66702;SDS011;60933;46.398;-63.798;2023-04-06T14:05:24;4.30;;;1.30;;
66702;SDS011;60933;46.398;-63.798;2023-04-06T14:07:52;3.03;;;0.90;;
66702;SDS011;60933;46.398;-63.798;2023-04-06T14:10:19;1.30;;;0.90;;
66702;SDS011;60933;46.398;-63.798;2023-04-06T14:12:48;3.22;;;1.10;;
66702;SDS011;60933;46.398;-63.798;2023-04-06T14:15:14;1.63;;;0.98;;
66702;SDS011;60933;46.398;-63.798;2023-04-06T14:17:40;1.52;;;0.80;;
66702;SDS011;60933;46.398;-63.798;2023-04-06T14:20:06;0.77;;;0.68;;
66702;SDS011;60933;46.398;-63.798;2023-04-06T14:22:39;3.17;;;0.93;;
66702;SDS011;60933;46.398;-63.798;2023-04-06T14:25:07;2.17;;;1.23;;
66702;SDS011;60933;46.398;-63.798;2023-04-06T14:27:33;2.63;;;1.48;;
66702;SDS011;60933;46.398;-63.798;2023-04-06T14:29:59;2.10;;;1.02;;
66702;SDS011;60933;46.398;-63.798;2023-04-06T14:32:26;1.90;;;0.70;;
66702;SDS011;60933;46.398;-63.798;2023-04-06T14:34:52;1.95;;;0.90;;
66702;SDS011;60933;46.398;-63.798;2023-04-06T14:37:18;1.63;;;0.90;;
66702;SDS011;60933;46.398;-63.798;2023-04-06T14:39:45;1.58;;;0.85;;
66702;SDS011;60933;46.398;-63.798;2023-04-06T14:42:12;1.65;;;0.60;;
66702;SDS011;60933;46.398;-63.798;2023-04-06T14:44:38;1.45;;;0.65;;
66702;SDS011;60933;46.398;-63.798;2023-04-06T14:47:08;1.40;;;0.95;;
66702;SDS011;60933;46.398;-63.798;2023-04-06T14:49:35;1.88;;;0.65;;
66702;SDS011;60933;46.398;-63.798;2023-04-06T14:52:02;2.38;;;0.98;;
66702;SDS011;60933;46.398;-63.798;2023-04-06T14:54:28;1.95;;;1.08;;
66702;SDS011;60933;46.398;-63.798;2023-04-06T14:56:54;1.92;;;0.90;;
66702;SDS011;60933;46.398;-63.798;2023-04-06T14:59:21;1.40;;;0.80;;
66702;SDS011;60933;46.398;-63.798;2023-04-06T15:01:47;1.65;;;0.75;;
66702;SDS011;60933;46.398;-63.798;2023-04-06T15:04:16;1.90;;;0.90;;
66702;SDS011;60933;46.398;-63.798;2023-04-06T15:06:42;1.10;;;0.60;;
66702;SDS011;60933;46.398;-63.798;2023-04-06T15:09:09;2.15;;;0.93;;
66702;SDS011;60933;46.398;-63.798;2023-04-06T15:11:35;1.35;;;0.68;;
66702;SDS011;60933;46.398;-63.798;2023-04-06T15:14:01;2.15;;;0.90;;
66702;SDS011;60933;46.398;-63.798;2023-04-06T15:16:27;2.47;;;0.80;;
66702;SDS011;60933;46.398;-63.798;2023-04-06T16:56:03;1.50;;;0.60;;
66702;SDS011;60933;46.398;-63.798;2023-04-06T16:58:59;1.30;;;0.93;;
66702;SDS011;60933;46.398;-63.798;2023-04-06T17:01:27;1.95;;;0.73;;
66702;SDS011;60933;46.398;-63.798;2023-04-06T17:03:54;0.70;;;0.43;;
66702;SDS011;60933;46.398;-63.798;2023-04-06T17:06:21;1.45;;;0.80;;
66702;SDS011;60933;46.398;-63.798;2023-04-06T17:08:47;1.95;;;1.05;;
66702;SDS011;60933;46.398;-63.798;2023-04-06T17:11:15;2.22;;;0.70;;
66702;SDS011;60933;46.398;-63.798;2023-04-06T17:13:42;1.80;;;0.75;;
66702;SDS011;60933;46.398;-63.798;2023-04-06T17:16:08;1.83;;;0.80;;
66702;SDS011;60933;46.398;-63.798;2023-04-06T17:18:35;0.98;;;0.40;;
66702;SDS011;60933;46.398;-63.798;2023-04-06T17:21:08;1.45;;;1.35;;
66702;SDS011;60933;46.398;-63.798;2023-04-06T17:23:35;1.48;;;0.65;;
66702;SDS011;60933;46.398;-63.798;2023-04-06T17:26:02;1.15;;;0.45;;
66702;SDS011;60933;46.398;-63.798;2023-04-06T17:28:29;1.75;;;0.68;;
66702;SDS011;60933;46.398;-63.798;2023-04-06T17:30:56;1.77;;;0.40;;
66702;SDS011;60933;46.398;-63.798;2023-04-06T17:33:23;1.30;;;0.70;;
66702;SDS011;60933;46.398;-63.798;2023-04-06T17:35:50;1.67;;;0.40;;
66702;SDS011;60933;46.398;-63.798;2023-04-06T17:38:17;0.85;;;0.63;;
66702;SDS011;60933;46.398;-63.798;2023-04-06T17:40:44;0.63;;;0.40;;
66702;SDS011;60933;46.398;-63.798;2023-04-06T17:43:10;2.38;;;0.47;;
66702;SDS011;60933;46.398;-63.798;2023-04-06T17:45:36;1.38;;;0.52;;
66702;SDS011;60933;46.398;-63.798;2023-04-06T17:48:03;2.28;;;0.70;;
66702;SDS011;60933;46.398;-63.798;2023-04-06T17:50:29;2.00;;;0.70;;
66702;SDS011;60933;46.398;-63.798;2023-04-06T17:52:55;2.55;;;0.60;;
66702;SDS011;60933;46.398;-63.798;2023-04-06T17:55:21;1.70;;;0.70;;
66702;SDS011;60933;46.398;-63.798;2023-04-06T17:57:47;2.45;;;0.60;;
66702;SDS011;60933;46.398;-63.798;2023-04-06T18:00:14;0.82;;;0.43;;
66702;SDS011;60933;46.398;-63.798;2023-04-06T18:02:44;1.63;;;0.75;;
66702;SDS011;60933;46.398;-63.798;2023-04-06T18:05:11;1.73;;;0.50;;
66702;SDS011;60933;46.398;-63.798;2023-04-06T18:07:37;0.90;;;0.43;;
66702;SDS011;60933;46.398;-63.798;2023-04-06T18:10:03;0.63;;;0.50;;
66702;SDS011;60933;46.398;-63.798;2023-04-06T18:12:30;1.65;;;0.40;;
66702;SDS011;60933;46.398;-63.798;2023-04-06T18:14:56;2.30;;;0.85;;
66702;SDS011;60933;46.398;-63.798;2023-04-06T18:17:22;1.40;;;1.30;;
66702;SDS011;60933;46.398;-63.798;2023-04-06T18:19:49;1.10;;;0.80;;
66702;SDS011;60933;46.398;-63.798;2023-04-06T18:22:15;1.63;;;0.85;;
66702;SDS011;60933;46.398;-63.798;2023-04-06T18:24:42;1.63;;;0.60;;
66702;SDS011;60933;46.398;-63.798;2023-04-06T18:27:08;4.03;;;0.85;;
66702;SDS011;60933;46.398;-63.798;2023-04-06T18:29:37;1.00;;;0.50;;
66702;SDS011;60933;46.398;-63.798;2023-04-06T18:32:04;1.48;;;0.57;;
66702;SDS011;60933;46.398;-63.798;2023-04-06T18:34:31;1.25;;;0.55;;
66702;SDS011;60933;46.398;-63.798;2023-04-06T18:36:57;2.83;;;0.45;;
66702;SDS011;60933;46.398;-63.798;2023-04-06T18:39:25;1.10;;;0.50;;
66702;SDS011;60933;46.398;-63.798;2023-04-06T18:41:52;1.10;;;0.63;;
66702;SDS011;60933;46.398;-63.798;2023-04-06T18:44:18;2.25;;;0.47;;
66702;SDS011;60933;46.398;-63.798;2023-04-06T18:46:44;1.55;;;0.63;;
66702;SDS011;60933;46.398;-63.798;2023-04-06T18:49:11;3.60;;;0.73;;
66702;SDS011;60933;46.398;-63.798;2023-04-06T18:51:37;0.98;;;0.45;;